createdAt,value
2022-07-26T00:02:05.673Z,99969.03
2022-07-26T00:04:33.894Z,99960.31
2022-07-26T00:07:02.028Z,99955.94
2022-07-26T00:09:30.061Z,99970.78
2022-07-26T00:11:58.142Z,99964.59
2022-07-26T00:14:26.136Z,99965.38
2022-07-26T00:16:55.659Z,99955.59
2022-07-26T00:19:23.661Z,99948.50
2022-07-26T00:22:12.197Z,99948.56
2022-07-26T00:24:40.805Z,99944.09
2022-07-26T00:27:09.496Z,99909.91
2022-07-26T00:29:37.544Z,99937.03
2022-07-26T00:32:07.889Z,99936.31
2022-07-26T00:34:35.862Z,99930.28
2022-07-26T00:37:03.971Z,99930.53
2022-07-26T00:39:31.950Z,99937.84
2022-07-26T00:41:59.934Z,99929.34
2022-07-26T00:44:38.256Z,99939.31
2022-07-26T00:47:07.922Z,99945.66
2022-07-26T00:49:36.000Z,99928.09
2022-07-26T00:52:06.058Z,99934.38
2022-07-26T00:54:34.116Z,99939.78
2022-07-26T00:57:02.133Z,99945.19
2022-07-26T00:59:30.437Z,99939.94
2022-07-26T01:01:58.685Z,99932.09
2022-07-26T01:04:28.591Z,99923.31
2022-07-26T01:06:57.015Z,99908.53
2022-07-26T01:09:25.374Z,99927.84
2022-07-26T01:11:53.288Z,99912.84
2022-07-26T01:14:22.506Z,99914.66
2022-07-26T01:16:50.961Z,99903.19
2022-07-26T01:19:19.436Z,99889.06
2022-07-26T01:21:48.854Z,99887.38
2022-07-26T01:24:16.981Z,99874.16
2022-07-26T01:26:45.031Z,99870.75
2022-07-26T01:29:13.282Z,99871.63
2022-07-26T01:31:41.619Z,99867.25
2022-07-26T01:34:09.973Z,99865.56
2022-07-26T01:36:39.802Z,99870.03
2022-07-26T01:39:09.265Z,99858.66
2022-07-26T01:41:38.313Z,99864.88
2022-07-26T01:44:08.229Z,99824.78
2022-07-26T01:46:37.362Z,99873.66
2022-07-26T01:49:06.999Z,99871.03
2022-07-26T01:51:35.215Z,99880.75
2022-07-26T01:54:03.434Z,99871.97
2022-07-26T01:56:32.796Z,99856.19
2022-07-26T01:59:00.819Z,99866.66
2022-07-26T02:01:39.195Z,99864.88
2022-07-26T02:04:09.355Z,99857.09
2022-07-26T02:06:37.823Z,99871.94
2022-07-26T02:09:07.547Z,99842.13
2022-07-26T02:11:37.109Z,99854.28
2022-07-26T02:14:05.374Z,99865.66
2022-07-26T02:16:33.522Z,99854.16
2022-07-26T02:19:01.477Z,99854.16
2022-07-26T02:21:29.507Z,99816.50
2022-07-26T02:23:57.419Z,99848.78
2022-07-26T02:26:25.609Z,99854.06
2022-07-26T02:28:54.999Z,99849.66
2022-07-26T02:31:22.975Z,99842.56
2022-07-26T02:34:00.553Z,99842.56
2022-07-26T02:36:28.482Z,99824.91
2022-07-26T02:38:56.393Z,99832.81
2022-07-26T02:41:24.643Z,99828.38
2022-07-26T02:43:52.486Z,99814.38
2022-07-26T02:46:21.813Z,99711.03
2022-07-26T02:48:50.657Z,99811.63
2022-07-26T02:51:18.913Z,99811.56
2022-07-26T02:53:46.803Z,99796.53
2022-07-26T02:56:14.867Z,99794.75
2022-07-26T02:58:42.740Z,99784.16
2022-07-26T03:01:10.734Z,99782.34
2022-07-26T03:03:40.260Z,99773.56
2022-07-26T03:06:08.197Z,99775.25
2022-07-26T03:08:36.054Z,99776.28
2022-07-26T03:11:06.060Z,99779.69
2022-07-26T03:13:35.926Z,99778.81
2022-07-26T03:16:03.862Z,99778.81
2022-07-26T03:18:32.155Z,99760.44
2022-07-26T03:21:01.391Z,99776.13
2022-07-26T03:23:33.607Z,99766.44
2022-07-26T03:26:02.770Z,99766.41
2022-07-26T03:28:32.028Z,99767.28
2022-07-26T03:31:01.177Z,99748.09
2022-07-26T03:33:29.671Z,99768.13
2022-07-26T03:35:57.935Z,99771.59
2022-07-26T03:38:27.460Z,99754.78
2022-07-26T03:40:55.453Z,99753.97
2022-07-26T03:43:23.589Z,99749.63
2022-07-26T03:45:54.583Z,99751.31
2022-07-26T03:48:23.002Z,99730.06
2022-07-26T03:50:50.940Z,99698.44
2022-07-26T03:53:18.970Z,99734.44
2022-07-26T03:56:20.429Z,99738.84
2022-07-26T03:58:48.554Z,99724.81
2022-07-26T04:01:17.173Z,99719.41
2022-07-26T04:03:47.682Z,99728.19
2022-07-26T04:06:16.434Z,99705.34
2022-07-26T04:08:44.570Z,99702.47
2022-07-26T04:11:14.365Z,99698.88
2022-07-26T04:13:42.472Z,99697.94
2022-07-26T04:16:10.553Z,99698.81
2022-07-26T04:18:38.582Z,99701.47
2022-07-26T04:21:06.841Z,99697.94
2022-07-26T04:23:34.894Z,99691.72
2022-07-26T04:26:02.764Z,99696.13
2022-07-26T04:28:32.941Z,99695.22
2022-07-26T04:31:01.432Z,99696.97
2022-07-26T04:33:29.445Z,99690.75
2022-07-26T04:35:57.492Z,99693.38
2022-07-26T04:38:25.685Z,99688.06
2022-07-26T04:40:53.783Z,99680.06
2022-07-26T04:43:21.752Z,99672.97
2022-07-26T04:45:51.270Z,99680.91
2022-07-26T04:48:19.294Z,99678.25
2022-07-26T04:50:47.440Z,99666.72
2022-07-26T04:53:15.505Z,99655.22
2022-07-26T04:55:43.952Z,99657.75
2022-07-26T04:58:12.814Z,99653.25
2022-07-26T05:01:09.407Z,99620.84
2022-07-26T05:03:31.085Z,99650.53
2022-07-26T05:05:59.081Z,99649.69
2022-07-26T05:08:27.137Z,99643.47
2022-07-26T05:10:56.067Z,99634.59
2022-07-26T05:13:30.502Z,99631.06
2022-07-26T05:15:59.533Z,99623.09
2022-07-26T05:18:29.886Z,99630.13
2022-07-26T05:21:01.928Z,99630.16
2022-07-26T05:23:29.975Z,99620.50
2022-07-26T05:25:57.805Z,99617.00
2022-07-26T05:28:26.324Z,99615.13
2022-07-26T05:30:54.421Z,99625.75
2022-07-26T05:33:22.762Z,99611.03
2022-07-26T05:35:51.008Z,99621.50
2022-07-26T05:38:20.787Z,99602.34
2022-07-26T05:40:50.953Z,99605.06
2022-07-26T05:43:19.314Z,99616.66
2022-07-26T05:45:47.557Z,99562.47
2022-07-26T05:48:15.561Z,99607.91
2022-07-26T05:50:43.693Z,99606.13
2022-07-26T05:53:11.751Z,99609.69
2022-07-26T05:55:41.077Z,99622.06
2022-07-26T05:58:09.633Z,99627.50
2022-07-26T06:00:37.687Z,99617.88
2022-07-26T06:03:22.235Z,99571.66
2022-07-26T06:05:51.596Z,99614.31
2022-07-26T06:08:20.198Z,99584.75
2022-07-26T06:10:50.565Z,99625.00
2022-07-26T06:13:18.872Z,99630.19
2022-07-26T06:15:47.719Z,99638.94
2022-07-26T06:18:15.861Z,99518.47
2022-07-26T06:20:45.529Z,99633.59
2022-07-26T06:23:14.176Z,99639.78
2022-07-26T06:25:42.570Z,99628.19
2022-07-26T06:28:12.585Z,99636.94
2022-07-26T06:30:41.388Z,99646.59
2022-07-26T06:33:09.802Z,99646.44
2022-07-26T06:35:39.352Z,99653.44
2022-07-26T06:38:07.646Z,99609.72
2022-07-26T06:40:36.616Z,99654.16
2022-07-26T06:43:05.546Z,99655.09
2022-07-26T06:45:35.012Z,99656.03
2022-07-26T06:48:03.142Z,99661.31
2022-07-26T06:50:31.350Z,99653.44
2022-07-26T06:52:59.419Z,99659.56
2022-07-26T06:55:27.443Z,99667.44
2022-07-26T06:57:55.689Z,99587.16
2022-07-26T07:00:23.777Z,99663.91
2022-07-26T07:02:53.427Z,99665.72
2022-07-26T07:05:21.687Z,99663.16
2022-07-26T07:07:49.639Z,99670.31
2022-07-26T07:10:17.677Z,99671.31
2022-07-26T07:12:48.629Z,99660.94
2022-07-26T07:15:16.509Z,99666.22
2022-07-26T07:17:44.968Z,99668.13
2022-07-26T07:20:14.492Z,99671.00
2022-07-26T07:22:42.390Z,99682.44
2022-07-26T07:25:10.799Z,99677.25
2022-07-26T07:27:42.938Z,99680.03
2022-07-26T07:30:12.330Z,99685.50
2022-07-26T07:32:40.653Z,99641.94
2022-07-26T07:35:12.662Z,99709.50
2022-07-26T07:37:52.349Z,99698.22
2022-07-26T07:40:21.331Z,99696.69
2022-07-26T07:42:49.415Z,99700.31
2022-07-26T07:45:17.322Z,99702.09
2022-07-26T07:47:45.322Z,99668.63
2022-07-26T07:50:13.403Z,99705.75
2022-07-26T07:52:42.623Z,99708.72
2022-07-26T07:55:36.885Z,99706.50
2022-07-26T07:57:59.219Z,99684.41
2022-07-26T08:00:27.846Z,99669.50
2022-07-26T08:02:55.823Z,99709.63
2022-07-26T08:05:24.019Z,99709.34
2022-07-26T08:07:54.174Z,99699.38
2022-07-26T08:10:22.254Z,99707.16
2022-07-26T08:12:51.228Z,99692.50
2022-07-26T08:15:19.798Z,99699.03
2022-07-26T08:17:53.893Z,99724.78
2022-07-26T08:20:24.839Z,99715.03
2022-07-26T08:22:54.566Z,99711.03
2022-07-26T08:25:23.660Z,99722.47
2022-07-26T08:28:09.254Z,99736.09
2022-07-26T08:30:39.766Z,99726.56
2022-07-26T08:33:07.797Z,99744.88
2022-07-26T08:35:35.786Z,99737.84
2022-07-26T08:38:05.223Z,99738.31
2022-07-26T08:40:34.794Z,99728.66
2022-07-26T08:43:02.951Z,99734.47
2022-07-26T08:45:32.400Z,99716.72
2022-07-26T08:48:18.426Z,99731.34
2022-07-26T08:50:46.986Z,99705.34
2022-07-26T08:53:17.052Z,99734.47
2022-07-26T08:56:05.841Z,99718.41
2022-07-26T08:58:35.447Z,99739.31
2022-07-26T09:01:08.302Z,99734.91
2022-07-26T09:03:38.256Z,99742.25
2022-07-26T09:06:13.887Z,99726.25
2022-07-26T09:08:44.395Z,99720.53
2022-07-26T09:11:32.749Z,99754.78
2022-07-26T09:14:02.780Z,99769.81
2022-07-26T09:16:34.975Z,99751.19
2022-07-26T09:19:22.657Z,99742.25
2022-07-26T09:21:51.454Z,99745.50
2022-07-26T09:24:34.088Z,99745.09
2022-07-26T09:27:04.202Z,99736.78
2022-07-26T09:29:42.834Z,99742.00
2022-07-26T09:32:12.877Z,99753.72
2022-07-26T09:34:52.049Z,99754.97
2022-07-26T09:37:34.108Z,99745.25
2022-07-26T09:40:05.656Z,99726.69
2022-07-26T09:42:33.626Z,99739.16
2022-07-26T09:45:02.530Z,99738.88
2022-07-26T09:47:38.254Z,99739.41
2022-07-26T09:50:14.156Z,99732.44
2022-07-26T09:52:42.506Z,99756.06
2022-07-26T09:55:13.358Z,99745.38
2022-07-26T09:57:41.310Z,99741.00
2022-07-26T10:00:10.629Z,99738.13
2022-07-26T10:02:38.589Z,99728.09
2022-07-26T10:05:07.737Z,99744.22
2022-07-26T10:07:36.196Z,99748.31
2022-07-26T10:10:07.955Z,99742.16
2022-07-26T10:12:37.858Z,99740.47
2022-07-26T10:15:06.495Z,99737.06
2022-07-26T10:17:44.374Z,99748.97
2022-07-26T10:20:37.743Z,99758.84
2022-07-26T10:23:35.899Z,99754.63
2022-07-26T10:26:05.507Z,99670.56
2022-07-26T10:28:37.148Z,99740.53
2022-07-26T10:31:32.771Z,99743.03
2022-07-26T10:34:02.458Z,99742.16
2022-07-26T10:36:37.409Z,99752.66
2022-07-26T10:39:15.214Z,99732.69
2022-07-26T10:41:46.293Z,99734.69
2022-07-26T10:44:18.598Z,99736.13
2022-07-26T10:46:57.126Z,99728.28
2022-07-26T10:49:34.525Z,99749.66
2022-07-26T10:52:14.047Z,99733.38
2022-07-26T10:55:12.393Z,99741.66
2022-07-26T10:57:41.749Z,99739.41
2022-07-26T11:00:15.705Z,99737.69
2022-07-26T11:02:48.795Z,99744.34
2022-07-26T11:05:18.477Z,99718.59
2022-07-26T11:07:59.037Z,99758.94
2022-07-26T11:10:29.458Z,99774.59
2022-07-26T11:13:02.466Z,99752.88
2022-07-26T11:15:32.304Z,99762.69
2022-07-26T11:18:22.505Z,99772.66
2022-07-26T11:20:54.048Z,99758.94
2022-07-26T11:23:37.782Z,99745.19
2022-07-26T11:26:08.727Z,99744.03
2022-07-26T11:28:48.233Z,99753.69
2022-07-26T11:31:20.044Z,99760.53
2022-07-26T11:33:51.048Z,99753.72
2022-07-26T11:36:20.431Z,99741.91
2022-07-26T11:38:50.105Z,99756.63
2022-07-26T11:41:34.340Z,99753.59
2022-07-26T11:44:05.425Z,99758.75
2022-07-26T11:46:37.252Z,99754.41
2022-07-26T11:49:07.520Z,99714.66
2022-07-26T11:51:35.770Z,99751.25
2022-07-26T11:54:05.391Z,99757.88
2022-07-26T11:56:33.348Z,99734.63
2022-07-26T11:59:01.698Z,99745.41
2022-07-26T12:01:30.138Z,99749.50
2022-07-26T12:03:59.425Z,99752.38
2022-07-26T12:06:29.060Z,99730.78
2022-07-26T12:08:58.762Z,99757.41
2022-07-26T12:11:39.049Z,99760.63
2022-07-26T12:14:07.448Z,99753.09
2022-07-26T12:16:44.513Z,99741.88
2022-07-26T12:19:28.633Z,99773.97
2022-07-26T12:21:59.659Z,99775.63
2022-07-26T12:24:57.175Z,99781.13
2022-07-26T12:27:27.075Z,99794.63
2022-07-26T12:29:56.433Z,99784.91
2022-07-26T12:32:25.850Z,99785.66
2022-07-26T12:35:01.915Z,99763.56
2022-07-26T12:37:39.383Z,99732.19
2022-07-26T12:40:11.246Z,99728.19
2022-07-26T12:42:42.020Z,99773.81
2022-07-26T12:45:11.789Z,99770.66
2022-07-26T12:47:41.987Z,99775.00
2022-07-26T12:50:12.941Z,99765.84
2022-07-26T12:52:41.578Z,99751.03
2022-07-26T12:55:14.229Z,99697.09
2022-07-26T12:57:45.967Z,99738.28
2022-07-26T13:00:17.517Z,99716.13
2022-07-26T13:02:46.584Z,99734.97
2022-07-26T13:05:16.271Z,99729.03
2022-07-26T13:07:44.494Z,99739.81
2022-07-26T13:13:01.041Z,99725.06
2022-07-26T13:15:37.336Z,99744.81
2022-07-26T13:18:08.911Z,99750.88
2022-07-26T13:20:39.350Z,99739.19
2022-07-26T13:23:12.761Z,99747.47
2022-07-26T13:25:41.945Z,99751.09
2022-07-26T13:28:11.095Z,99752.06
2022-07-26T13:30:43.276Z,99735.97
2022-07-26T13:33:11.529Z,99745.72
2022-07-26T13:35:42.612Z,99726.97
2022-07-26T13:38:11.084Z,99715.56
2022-07-26T13:40:39.079Z,99737.00
2022-07-26T13:43:07.402Z,99733.75
2022-07-26T13:45:35.491Z,99686.16
2022-07-26T13:48:03.483Z,99728.09
2022-07-26T13:50:31.704Z,99734.63
2022-07-26T13:53:01.060Z,99737.53
2022-07-26T13:55:28.971Z,99742.53
2022-07-26T13:57:58.173Z,99736.06
2022-07-26T14:00:27.353Z,99751.59
2022-07-26T14:02:56.267Z,99753.03
2022-07-26T14:05:24.448Z,99763.97
2022-07-26T14:07:52.861Z,99755.97
2022-07-26T14:10:23.032Z,99754.84
2022-07-26T14:12:51.988Z,99760.78
2022-07-26T14:15:22.914Z,99770.09
2022-07-26T14:17:51.404Z,99717.13
2022-07-26T14:20:20.026Z,99764.22
2022-07-26T14:22:48.779Z,99724.34
2022-07-26T14:25:16.704Z,99756.22
2022-07-26T14:27:46.150Z,99757.56
2022-07-26T14:30:15.074Z,99748.59
2022-07-26T14:32:43.310Z,99757.91
2022-07-26T14:35:11.607Z,99773.53
2022-07-26T14:37:43.762Z,99771.31
2022-07-26T14:40:14.807Z,99769.75
2022-07-26T14:42:42.725Z,99769.25
2022-07-26T14:45:12.379Z,99767.66
2022-07-26T14:47:40.514Z,99771.00
2022-07-26T14:50:10.515Z,99762.56
2022-07-26T14:52:39.218Z,99756.69
2022-07-26T14:55:08.309Z,99746.69
2022-07-26T14:57:39.654Z,99732.47
2022-07-26T15:00:10.709Z,99763.63
2022-07-26T15:02:41.443Z,99766.53
2022-07-26T15:05:10.472Z,99766.25
2022-07-26T15:07:38.514Z,99766.47
2022-07-26T15:10:08.909Z,99766.75
2022-07-26T15:12:37.366Z,99774.75
2022-07-26T15:15:06.349Z,99713.94
2022-07-26T15:17:34.397Z,99745.44
2022-07-26T15:20:05.006Z,99773.47
2022-07-26T15:22:32.992Z,99790.16
2022-07-26T15:25:00.889Z,99786.94
2022-07-26T15:27:28.979Z,99786.28
2022-07-26T15:30:02.881Z,99801.69
2022-07-26T15:32:33.060Z,99761.97
2022-07-26T15:35:01.033Z,99775.63
2022-07-26T15:37:30.386Z,99803.38
2022-07-26T15:39:59.726Z,99814.09
2022-07-26T15:42:27.623Z,99796.78
2022-07-26T15:44:55.910Z,99816.34
2022-07-26T15:47:52.888Z,99809.34
2022-07-26T15:50:14.143Z,99808.47
2022-07-26T15:52:45.629Z,99805.78
2022-07-26T15:55:15.480Z,99777.66
2022-07-26T15:57:43.908Z,99736.38
2022-07-26T16:00:14.795Z,99810.56
2022-07-26T16:02:43.286Z,99782.56
2022-07-26T16:05:12.163Z,99808.50
2022-07-26T16:07:41.772Z,99809.13
2022-07-26T16:10:13.472Z,99798.09
2022-07-26T16:12:41.621Z,99795.38
2022-07-26T16:15:11.625Z,99803.38
2022-07-26T16:17:40.094Z,99801.38
2022-07-26T16:20:09.170Z,99791.19
2022-07-26T16:22:41.283Z,99789.13
2022-07-26T16:25:13.661Z,99787.25
2022-07-26T16:27:43.033Z,99789.97
2022-07-26T16:30:12.346Z,99790.44
2022-07-26T16:32:40.340Z,99783.13
2022-07-26T16:35:09.035Z,99789.16
2022-07-26T16:37:37.061Z,99794.38
2022-07-26T16:40:06.859Z,99782.09
2022-07-26T16:42:36.557Z,99793.53
2022-07-26T16:45:05.457Z,99779.19
2022-07-26T16:47:33.442Z,99797.97
2022-07-26T16:50:01.498Z,99747.63
2022-07-26T16:52:29.587Z,99787.09
2022-07-26T16:54:57.585Z,99786.50
2022-07-26T16:57:25.737Z,99799.69
2022-07-26T16:59:55.198Z,99780.69
2022-07-26T17:02:24.879Z,99781.28
2022-07-26T17:04:55.856Z,99782.34
2022-07-26T17:07:25.865Z,99779.91
2022-07-26T17:09:54.835Z,99781.91
2022-07-26T17:12:22.875Z,99785.31
2022-07-26T17:14:51.118Z,99784.47
2022-07-26T17:17:20.400Z,99791.19
2022-07-26T17:19:48.448Z,99791.72
2022-07-26T17:22:17.604Z,99805.88
2022-07-26T17:24:45.791Z,99786.47
2022-07-26T17:27:15.900Z,99824.88
2022-07-26T17:29:46.559Z,99799.44
2022-07-26T17:32:14.506Z,99810.66
2022-07-26T17:34:43.996Z,99797.81
2022-07-26T17:37:12.377Z,99804.44
2022-07-26T17:39:51.682Z,99819.69
2022-07-26T17:42:22.195Z,99806.84
2022-07-26T17:44:50.548Z,99809.63
2022-07-26T17:47:28.221Z,99817.72
2022-07-26T17:50:26.191Z,99769.81
2022-07-26T17:52:52.592Z,99813.59
2022-07-26T17:55:22.097Z,99810.91
2022-07-26T17:57:51.116Z,99812.84
2022-07-26T18:00:21.087Z,99779.53
2022-07-26T18:02:49.995Z,99816.53
2022-07-26T18:05:19.971Z,99820.06
2022-07-26T18:07:48.007Z,99820.97
2022-07-26T18:10:16.215Z,99823.75
2022-07-26T18:12:44.064Z,99821.19
2022-07-26T18:15:12.519Z,99817.72
2022-07-26T18:17:40.705Z,99819.66
2022-07-26T18:20:09.760Z,99817.16
2022-07-26T18:22:39.171Z,99829.63
2022-07-26T18:25:08.031Z,99823.59
2022-07-26T18:27:36.024Z,99819.31
2022-07-26T18:30:05.290Z,99706.75
2022-07-26T18:32:34.250Z,99835.28
2022-07-26T18:35:02.251Z,99832.69
2022-07-26T18:37:30.189Z,99832.72
2022-07-26T18:40:00.019Z,99835.34
2022-07-26T18:42:28.135Z,99838.91
2022-07-26T18:44:56.105Z,99861.13
2022-07-26T18:47:24.279Z,99842.72
2022-07-26T18:49:52.196Z,99851.75
2022-07-26T18:52:28.901Z,99852.78
2022-07-26T18:55:06.929Z,99853.88
2022-07-26T18:57:35.978Z,99856.63
2022-07-26T19:00:05.557Z,99858.53
2022-07-26T19:02:33.575Z,99858.69
2022-07-26T19:05:01.460Z,99868.44
2022-07-26T19:07:29.372Z,99876.53
2022-07-26T19:09:58.827Z,99888.97
2022-07-26T19:12:29.159Z,99869.56
2022-07-26T19:14:59.936Z,99876.69
2022-07-26T19:17:30.248Z,99878.53
2022-07-26T19:19:58.449Z,99884.03
2022-07-26T19:22:26.945Z,99890.34
2022-07-26T19:24:54.982Z,99879.09
2022-07-26T19:27:23.057Z,99898.56
2022-07-26T19:29:52.738Z,99902.19
2022-07-26T19:32:20.730Z,99899.66
2022-07-26T19:34:48.675Z,99907.72
2022-07-26T19:37:21.254Z,99902.56
2022-07-26T19:39:49.444Z,99918.47
2022-07-26T19:42:17.874Z,99917.72
2022-07-26T19:44:47.099Z,99934.63
2022-07-26T19:47:16.617Z,99930.34
2022-07-26T19:49:52.106Z,99930.44
2022-07-26T19:52:20.108Z,99941.13
2022-07-26T19:54:48.041Z,99943.84
2022-07-26T19:57:20.009Z,99946.56
2022-07-26T19:59:48.530Z,99946.69
2022-07-26T20:02:18.408Z,99945.88
2022-07-26T20:04:46.724Z,99963.59
2022-07-26T20:07:19.526Z,99939.06
2022-07-26T20:09:48.856Z,99959.31
2022-07-26T20:12:17.140Z,99962.03
2022-07-26T20:14:45.469Z,99959.47
2022-07-26T20:17:14.197Z,99965.69
2022-07-26T20:19:43.832Z,99947.25
2022-07-26T20:22:12.310Z,99969.22
2022-07-26T20:24:41.161Z,99963.03
2022-07-26T20:27:09.314Z,99965.66
2022-07-26T20:29:37.309Z,99944.63
2022-07-26T20:32:05.897Z,99963.03
2022-07-26T20:34:35.067Z,99948.94
2022-07-26T20:37:04.468Z,99966.47
2022-07-26T20:39:32.569Z,99955.94
2022-07-26T20:42:01.847Z,99973.53
2022-07-26T20:44:29.984Z,99979.72
2022-07-26T20:46:57.945Z,99969.13
2022-07-26T20:49:26.023Z,99965.66
2022-07-26T20:51:54.089Z,99967.44
2022-07-26T20:54:23.424Z,99971.84
2022-07-26T20:56:51.494Z,99975.38
2022-07-26T20:59:19.493Z,99971.00
2022-07-26T21:01:47.856Z,99974.53
2022-07-26T21:04:15.872Z,99975.44
2022-07-26T21:06:43.762Z,99979.88
2022-07-26T21:09:12.251Z,99977.25
2022-07-26T21:11:42.023Z,99957.94
2022-07-26T21:14:09.951Z,99978.97
2022-07-26T21:16:38.510Z,99980.75
2022-07-26T21:19:06.680Z,99886.94
2022-07-26T21:21:37.050Z,99980.72
2022-07-26T21:24:05.928Z,99980.72
2022-07-26T21:26:34.118Z,99986.88
2022-07-26T21:29:03.497Z,99987.75
2022-07-26T21:31:31.799Z,100000.94
2022-07-26T21:34:00.034Z,99987.75
2022-07-26T21:36:27.986Z,99996.59
2022-07-26T21:38:56.115Z,99970.25
2022-07-26T21:41:24.530Z,99993.00
2022-07-26T21:43:52.470Z,99996.56
2022-07-26T21:46:22.197Z,100003.59
2022-07-26T21:48:50.417Z,99988.63
2022-07-26T21:51:18.542Z,99995.66
2022-07-26T21:53:46.654Z,100003.56
2022-07-26T21:56:14.762Z,100004.47
2022-07-26T21:58:42.607Z,100003.56
2022-07-26T22:01:12.569Z,100000.03
2022-07-26T22:03:43.066Z,100011.47
2022-07-26T22:06:11.590Z,99998.31
2022-07-26T22:08:39.675Z,99973.72
2022-07-26T22:11:07.794Z,99997.38
2022-07-26T22:13:36.894Z,100008.84
2022-07-26T22:16:05.550Z,99998.25
2022-07-26T22:18:33.758Z,99996.50
2022-07-26T22:21:03.065Z,99999.16
2022-07-26T22:23:31.438Z,99991.25
2022-07-26T22:26:01.866Z,99995.63
2022-07-26T22:28:31.002Z,99980.66
2022-07-26T22:30:59.310Z,99994.75
2022-07-26T22:33:27.343Z,99994.81
2022-07-26T22:35:55.358Z,99997.44
2022-07-26T22:38:24.852Z,100003.59
2022-07-26T22:40:52.969Z,99997.44
2022-07-26T22:43:21.647Z,99989.50
2022-07-26T22:45:49.702Z,100005.38
2022-07-26T22:48:17.805Z,100004.50
2022-07-26T22:50:45.956Z,100001.88
2022-07-26T22:53:13.895Z,99996.59
2022-07-26T22:55:43.289Z,100005.41
2022-07-26T22:58:11.357Z,99996.56
2022-07-26T23:00:39.502Z,99995.72
2022-07-26T23:03:19.839Z,100002.72
2022-07-26T23:05:49.924Z,99995.66
2022-07-26T23:11:07.765Z,99993.09
2022-07-26T23:13:35.985Z,99994.81
2022-07-26T23:16:04.474Z,99972.03
2022-07-26T23:18:33.040Z,99999.25
2022-07-26T23:21:00.947Z,99990.47
2022-07-26T23:23:30.005Z,100001.94
2022-07-26T23:25:59.875Z,99987.88
2022-07-26T23:28:37.454Z,99988.75
2022-07-26T23:31:08.038Z,99982.56
2022-07-26T23:33:51.732Z,99986.13
2022-07-26T23:36:24.127Z,99987.94
2022-07-26T23:38:52.354Z,99937.09
2022-07-26T23:41:20.296Z,99987.13
2022-07-26T23:43:50.066Z,99981.84
2022-07-26T23:46:18.507Z,99980.13
2022-07-26T23:48:46.710Z,99924.84
2022-07-26T23:51:15.035Z,99983.59
2022-07-26T23:53:43.280Z,99988.00
2022-07-26T23:56:11.141Z,99999.47
2022-07-26T23:58:39.348Z,99993.34
